createdAt,value
2024-02-15T00:01:45.509Z,19.09
2024-02-15T00:04:12.468Z,19.16
2024-02-15T00:06:39.387Z,19.14
2024-02-15T00:09:06.661Z,19.14
2024-02-15T00:11:34.820Z,19.17
2024-02-15T00:14:01.633Z,19.16
2024-02-15T00:16:28.978Z,19.16
2024-02-15T00:18:59.177Z,19.10
2024-02-15T00:21:25.957Z,19.11
2024-02-15T00:23:54.714Z,19.08
2024-02-15T00:26:22.205Z,19.06
2024-02-15T00:28:50.495Z,19.15
2024-02-15T00:31:17.341Z,19.08
2024-02-15T00:33:44.563Z,19.07
2024-02-15T00:36:11.947Z,19.09
2024-02-15T00:38:39.288Z,19.06
2024-02-15T00:41:07.121Z,19.05
2024-02-15T00:43:35.982Z,19.10
2024-02-15T00:46:02.685Z,19.06
2024-02-15T00:48:31.066Z,19.06
2024-02-15T00:50:58.231Z,19.06
2024-02-15T00:53:25.210Z,18.98
2024-02-15T00:55:52.721Z,19.06
2024-02-15T00:58:19.573Z,19.08
2024-02-15T01:00:46.329Z,19.06
2024-02-15T01:03:13.221Z,19.04
2024-02-15T01:05:40.113Z,19.07
2024-02-15T01:08:06.991Z,19.08
2024-02-15T01:10:35.096Z,19.01
2024-02-15T01:13:02.003Z,18.96
2024-02-15T01:15:28.812Z,18.99
2024-02-15T01:17:56.147Z,18.94
2024-02-15T01:20:23.020Z,19.51
2024-02-15T01:22:51.292Z,20.52
2024-02-15T01:25:18.595Z,19.93
2024-02-15T01:27:45.405Z,21.05
2024-02-15T01:30:12.334Z,20.01
2024-02-15T01:32:41.148Z,21.17
2024-02-15T01:35:09.125Z,20.54
2024-02-15T01:37:35.873Z,21.17
2024-02-15T01:40:02.627Z,21.27
2024-02-15T01:42:29.559Z,21.09
2024-02-15T01:44:56.385Z,21.72
2024-02-15T01:47:24.478Z,20.96
2024-02-15T01:49:51.489Z,22.06
2024-02-15T01:52:18.492Z,20.84
2024-02-15T01:54:45.587Z,21.97
2024-02-15T01:57:12.322Z,21.50
2024-02-15T01:59:39.098Z,21.90
2024-02-15T02:02:05.928Z,21.77
2024-02-15T02:04:33.028Z,21.59
2024-02-15T02:07:00.466Z,22.13
2024-02-15T02:09:27.254Z,21.46
2024-02-15T02:11:54.109Z,22.48
2024-02-15T02:14:21.793Z,21.23
2024-02-15T02:16:48.455Z,22.36
2024-02-15T02:19:15.290Z,21.46
2024-02-15T02:21:42.191Z,22.15
2024-02-15T02:24:15.496Z,21.89
2024-02-15T02:26:42.634Z,21.88
2024-02-15T02:29:09.368Z,22.53
2024-02-15T02:31:36.418Z,21.72
2024-02-15T02:34:03.396Z,22.78
2024-02-15T02:36:30.681Z,21.87
2024-02-15T02:39:02.041Z,22.65
2024-02-15T02:41:29.676Z,21.98
2024-02-15T02:43:57.548Z,22.44
2024-02-15T02:46:24.371Z,22.07
2024-02-15T02:48:51.353Z,22.01
2024-02-15T02:51:18.320Z,22.47
2024-02-15T02:53:45.202Z,21.72
2024-02-15T02:56:12.104Z,22.92
2024-02-15T02:58:38.860Z,21.86
2024-02-15T03:01:05.632Z,22.75
2024-02-15T03:03:32.356Z,21.37
2024-02-15T03:05:59.773Z,20.72
2024-02-15T03:08:26.538Z,20.40
2024-02-15T03:10:53.226Z,20.07
2024-02-15T03:13:22.842Z,20.00
2024-02-15T03:15:49.528Z,19.89
2024-02-15T03:18:17.496Z,19.70
2024-02-15T03:20:44.772Z,19.67
2024-02-15T03:23:12.781Z,19.75
2024-02-15T03:25:39.711Z,19.68
2024-02-15T03:28:06.628Z,19.61
2024-02-15T03:30:35.309Z,19.54
2024-02-15T03:33:03.124Z,19.52
2024-02-15T03:35:32.937Z,19.39
2024-02-15T03:38:00.211Z,19.50
2024-02-15T03:40:31.866Z,19.28
2024-02-15T03:42:58.707Z,19.39
2024-02-15T03:45:27.119Z,19.45
2024-02-15T03:47:54.831Z,19.47
2024-02-15T03:50:23.359Z,19.45
2024-02-15T03:52:50.640Z,19.34
2024-02-15T03:55:17.536Z,19.35
2024-02-15T03:57:50.216Z,19.23
2024-02-15T04:00:23.181Z,19.20
2024-02-15T04:02:50.876Z,19.25
2024-02-15T04:05:19.599Z,19.29
2024-02-15T04:07:46.704Z,19.29
2024-02-15T04:10:13.725Z,19.27
2024-02-15T04:12:43.314Z,19.24
2024-02-15T04:15:14.159Z,19.17
2024-02-15T04:17:42.463Z,19.19
2024-02-15T04:20:10.300Z,19.23
2024-02-15T04:22:40.005Z,19.11
2024-02-15T04:25:07.539Z,19.18
2024-02-15T04:27:34.766Z,19.20
2024-02-15T04:30:01.648Z,19.19
2024-02-15T04:32:30.222Z,19.25
2024-02-15T04:34:57.070Z,19.20
2024-02-15T04:37:28.343Z,19.24
2024-02-15T04:39:54.973Z,19.25
2024-02-15T04:42:21.605Z,19.10
2024-02-15T04:44:48.245Z,19.18
2024-02-15T04:47:14.997Z,19.05
2024-02-15T04:49:43.338Z,19.13
2024-02-15T04:52:10.596Z,19.07
2024-02-15T04:54:37.463Z,19.15
2024-02-15T04:57:04.148Z,19.07
2024-02-15T04:59:31.743Z,19.03
2024-02-15T05:01:59.292Z,19.03
2024-02-15T05:04:26.070Z,19.13
2024-02-15T05:06:54.420Z,19.04
2024-02-15T05:09:21.407Z,19.05
2024-02-15T05:11:48.562Z,19.05
2024-02-15T05:14:20.563Z,19.06
2024-02-15T05:16:49.250Z,19.09
2024-02-15T05:19:17.199Z,19.09
2024-02-15T05:21:46.257Z,19.04
2024-02-15T05:24:16.454Z,19.02
2024-02-15T05:26:44.556Z,19.11
2024-02-15T05:29:12.534Z,20.55
2024-02-15T05:31:39.855Z,19.74
2024-02-15T05:34:09.158Z,20.80
2024-02-15T05:36:36.485Z,20.30
2024-02-15T05:39:04.445Z,20.81
2024-02-15T05:41:31.328Z,20.90
2024-02-15T05:43:59.237Z,20.62
2024-02-15T05:46:26.113Z,21.57
2024-02-15T05:48:53.238Z,20.88
2024-02-15T05:51:20.223Z,21.90
2024-02-15T05:53:47.212Z,21.20
2024-02-15T05:56:14.843Z,21.91
2024-02-15T05:58:41.692Z,21.17
2024-02-15T06:01:08.648Z,21.61
2024-02-15T06:03:36.153Z,21.81
2024-02-15T06:06:07.757Z,21.48
2024-02-15T06:08:34.861Z,22.12
2024-02-15T06:11:02.558Z,21.39
2024-02-15T06:13:29.295Z,22.42
2024-02-15T06:15:56.418Z,21.19
2024-02-15T06:18:25.694Z,22.26
2024-02-15T06:20:54.745Z,21.79
2024-02-15T06:23:23.563Z,22.15
2024-02-15T06:25:52.424Z,22.09
2024-02-15T06:28:37.446Z,21.85
2024-02-15T06:31:22.789Z,22.10
2024-02-15T06:34:08.218Z,21.85
2024-02-15T06:36:53.601Z,22.33
2024-02-15T06:39:39.096Z,21.94
2024-02-15T06:42:05.953Z,22.37
2024-02-15T06:44:32.928Z,21.82
2024-02-15T06:46:59.659Z,22.67
2024-02-15T06:49:26.431Z,21.83
2024-02-15T06:51:53.345Z,22.71
2024-02-15T06:54:20.043Z,21.62
2024-02-15T06:56:47.826Z,22.51
2024-02-15T06:59:19.371Z,22.14
2024-02-15T07:01:46.026Z,22.31
2024-02-15T07:04:12.798Z,22.35
2024-02-15T07:06:39.812Z,21.91
2024-02-15T07:09:07.470Z,22.76
2024-02-15T07:11:35.785Z,21.50
2024-02-15T07:14:02.894Z,22.83
2024-02-15T07:16:30.539Z,21.98
2024-02-15T07:18:57.457Z,22.70
2024-02-15T07:21:28.455Z,22.23
2024-02-15T07:23:57.965Z,22.47
2024-02-15T07:26:25.966Z,22.40
2024-02-15T07:28:54.348Z,22.16
2024-02-15T07:31:22.522Z,22.71
2024-02-15T07:33:50.263Z,21.94
2024-02-15T07:36:23.506Z,22.96
2024-02-15T07:38:50.733Z,21.92
2024-02-15T07:41:23.482Z,22.86
2024-02-15T07:43:51.296Z,22.08
2024-02-15T07:46:17.994Z,22.72
2024-02-15T07:48:48.029Z,22.36
2024-02-15T07:51:16.444Z,22.45
2024-02-15T07:53:44.263Z,22.60
2024-02-15T07:56:14.719Z,22.07
2024-02-15T07:58:42.969Z,22.90
2024-02-15T08:01:10.845Z,21.75
2024-02-15T08:03:37.650Z,23.05
2024-02-15T08:06:07.963Z,21.79
2024-02-15T08:08:36.370Z,22.88
2024-02-15T08:11:03.941Z,22.38
2024-02-15T08:13:30.844Z,22.60
2024-02-15T08:15:57.561Z,22.22
2024-02-15T08:18:24.363Z,21.07
2024-02-15T08:20:51.257Z,20.54
2024-02-15T08:23:18.687Z,20.36
2024-02-15T08:25:45.390Z,20.10
2024-02-15T08:28:12.589Z,20.09
2024-02-15T08:30:39.318Z,19.84
2024-02-15T08:33:06.205Z,19.78
2024-02-15T08:35:33.833Z,19.77
2024-02-15T08:38:00.932Z,19.65
2024-02-15T08:40:27.766Z,19.70
2024-02-15T08:42:54.484Z,19.57
2024-02-15T08:45:21.947Z,19.48
2024-02-15T08:47:51.459Z,19.53
2024-02-15T08:50:18.786Z,19.35
2024-02-15T08:52:45.731Z,19.39
2024-02-15T08:55:16.142Z,19.31
2024-02-15T08:57:45.638Z,19.19
2024-02-15T09:00:17.960Z,19.33
2024-02-15T09:02:45.478Z,19.25
2024-02-15T09:05:15.804Z,19.39
2024-02-15T09:07:43.878Z,19.44
2024-02-15T09:10:13.701Z,19.36
2024-02-15T09:12:41.095Z,19.28
2024-02-15T09:15:08.682Z,19.32
2024-02-15T09:17:41.662Z,19.36
2024-02-15T09:20:09.705Z,19.29
2024-02-15T09:22:38.940Z,19.29
2024-02-15T09:25:05.827Z,19.25
2024-02-15T09:27:32.541Z,19.21
2024-02-15T09:29:59.247Z,19.26
2024-02-15T09:32:25.976Z,19.26
2024-02-15T09:34:52.803Z,19.16
2024-02-15T09:37:19.505Z,19.13
2024-02-15T09:39:47.490Z,19.27
2024-02-15T09:42:14.385Z,19.24
2024-02-15T09:44:41.622Z,19.19
2024-02-15T09:47:10.107Z,19.25
2024-02-15T09:49:37.332Z,19.27
2024-02-15T09:52:04.540Z,19.26
2024-02-15T09:54:31.657Z,19.22
2024-02-15T09:56:58.758Z,19.17
2024-02-15T09:59:25.595Z,19.18
2024-02-15T10:01:52.311Z,19.15
2024-02-15T10:04:19.116Z,19.05
2024-02-15T10:06:46.046Z,19.10
2024-02-15T10:09:27.150Z,19.18
2024-02-15T10:11:57.656Z,19.15
2024-02-15T10:14:24.977Z,19.07
2024-02-15T10:16:51.716Z,19.10
2024-02-15T10:19:19.887Z,19.12
2024-02-15T10:21:48.010Z,19.02
2024-02-15T10:24:15.618Z,19.10
2024-02-15T10:26:42.447Z,19.14
2024-02-15T10:29:10.754Z,19.08
2024-02-15T10:31:38.275Z,19.08
2024-02-15T10:34:06.187Z,19.03
2024-02-15T10:36:35.775Z,19.13
2024-02-15T10:39:31.982Z,19.04
2024-02-15T10:41:59.072Z,19.02
2024-02-15T10:44:26.845Z,19.02
2024-02-15T10:46:54.016Z,19.06
2024-02-15T10:49:21.708Z,19.04
2024-02-15T10:52:05.389Z,18.94
2024-02-15T10:54:48.238Z,19.05
2024-02-15T10:57:16.502Z,19.03
2024-02-15T10:59:58.861Z,19.10
2024-02-15T11:02:32.587Z,19.02
2024-02-15T11:05:05.105Z,18.96
2024-02-15T11:07:35.857Z,18.99
2024-02-15T11:10:02.954Z,18.89
2024-02-15T11:12:29.740Z,19.01
2024-02-15T11:14:56.682Z,18.94
2024-02-15T11:17:38.769Z,18.93
2024-02-15T11:20:11.324Z,19.02
2024-02-15T11:22:38.398Z,19.02
2024-02-15T11:25:10.205Z,19.01
2024-02-15T11:27:38.588Z,18.87
2024-02-15T11:30:16.973Z,18.85
2024-02-15T11:32:55.263Z,19.00
2024-02-15T11:35:24.874Z,19.01
2024-02-15T11:37:52.158Z,19.16
2024-02-15T11:40:19.299Z,18.95
2024-02-15T11:42:46.240Z,18.86
2024-02-15T11:45:13.146Z,19.88
2024-02-15T11:47:41.309Z,20.29
2024-02-15T11:50:16.110Z,20.12
2024-02-15T11:52:43.957Z,21.02
2024-02-15T11:55:14.261Z,20.07
2024-02-15T11:57:52.173Z,21.38
2024-02-15T12:00:41.258Z,20.61
2024-02-15T12:03:26.259Z,21.64
2024-02-15T12:06:11.609Z,20.86
2024-02-15T12:08:56.973Z,21.83
2024-02-15T12:11:42.342Z,21.02
2024-02-15T12:14:48.533Z,22.00
2024-02-15T12:17:34.222Z,20.81
2024-02-15T12:20:02.701Z,22.17
2024-02-15T12:22:32.304Z,21.29
2024-02-15T12:24:59.690Z,22.16
2024-02-15T12:27:29.405Z,21.17
2024-02-15T12:29:56.699Z,22.01
2024-02-15T12:32:24.728Z,21.76
2024-02-15T12:34:52.783Z,21.83
2024-02-15T12:37:21.930Z,22.05
2024-02-15T12:39:50.049Z,21.48
2024-02-15T12:42:18.064Z,22.54
2024-02-15T12:44:47.156Z,21.29
2024-02-15T12:47:26.314Z,22.57
2024-02-15T12:49:53.423Z,21.81
2024-02-15T12:52:38.533Z,22.61
2024-02-15T12:55:09.866Z,21.91
2024-02-15T12:57:37.328Z,22.52
2024-02-15T13:00:12.430Z,22.04
2024-02-15T13:02:39.534Z,22.32
2024-02-15T13:05:06.782Z,22.32
2024-02-15T13:07:33.608Z,21.97
2024-02-15T13:10:00.519Z,22.67
2024-02-15T13:12:27.208Z,21.77
2024-02-15T13:14:55.601Z,22.84
2024-02-15T13:17:22.998Z,21.91
2024-02-15T13:19:50.628Z,22.71
2024-02-15T13:22:17.331Z,21.88
2024-02-15T13:24:43.983Z,22.41
2024-02-15T13:27:13.608Z,22.23
2024-02-15T13:29:42.729Z,22.01
2024-02-15T13:32:13.626Z,22.71
2024-02-15T13:34:41.662Z,21.92
2024-02-15T13:37:08.417Z,22.96
2024-02-15T13:39:35.131Z,22.00
2024-02-15T13:42:02.465Z,22.90
2024-02-15T13:44:31.863Z,21.51
2024-02-15T13:46:58.814Z,20.81
2024-02-15T13:49:32.205Z,20.51
2024-02-15T13:52:03.750Z,20.26
2024-02-15T13:54:31.279Z,20.26
2024-02-15T13:56:58.169Z,20.12
2024-02-15T13:59:24.879Z,19.98
2024-02-15T14:01:52.027Z,19.90
2024-02-15T14:04:18.839Z,19.76
2024-02-15T14:06:45.689Z,19.72
2024-02-15T14:09:13.058Z,19.71
2024-02-15T14:11:40.167Z,19.70
2024-02-15T14:14:07.199Z,19.62
2024-02-15T14:16:35.493Z,19.72
2024-02-15T14:19:05.300Z,19.57
2024-02-15T14:21:34.906Z,19.48
2024-02-15T14:24:01.810Z,19.42
2024-02-15T14:26:32.485Z,19.53
2024-02-15T14:28:59.283Z,19.55
2024-02-15T14:31:58.237Z,19.47
2024-02-15T14:34:26.320Z,19.43
2024-02-15T14:36:53.131Z,19.48
2024-02-15T14:39:20.870Z,19.49
2024-02-15T14:41:50.553Z,19.49
2024-02-15T14:44:17.531Z,19.51
2024-02-15T14:46:44.399Z,19.42
2024-02-15T14:49:11.266Z,19.36
2024-02-15T14:51:40.353Z,19.41
2024-02-15T14:54:07.158Z,19.41
2024-02-15T14:56:38.719Z,19.37
2024-02-15T14:59:05.908Z,19.30
2024-02-15T15:01:32.720Z,19.33
2024-02-15T15:04:07.009Z,19.26
2024-02-15T15:06:52.414Z,19.28
2024-02-15T15:09:37.657Z,19.29
2024-02-15T15:12:23.348Z,19.30
2024-02-15T15:14:50.188Z,19.36
2024-02-15T15:17:18.571Z,19.34
2024-02-15T15:19:45.530Z,19.33
2024-02-15T15:22:12.341Z,19.21
2024-02-15T15:24:39.353Z,19.23
2024-02-15T15:27:09.377Z,19.27
2024-02-15T15:29:36.121Z,19.27
2024-02-15T15:32:02.868Z,19.25
2024-02-15T15:34:29.574Z,19.20
2024-02-15T15:36:56.408Z,19.20
2024-02-15T15:39:26.008Z,19.14
2024-02-15T15:41:55.163Z,19.15
2024-02-15T15:44:24.011Z,19.14
2024-02-15T15:46:55.160Z,19.09
2024-02-15T15:49:22.353Z,19.10
2024-02-15T15:51:49.248Z,19.17
2024-02-15T15:54:17.959Z,19.17
2024-02-15T15:56:44.941Z,19.07
2024-02-15T15:59:12.313Z,19.14
2024-02-15T16:01:49.198Z,19.11
2024-02-15T16:04:15.861Z,19.06
2024-02-15T16:06:42.629Z,19.05
2024-02-15T16:09:10.113Z,19.06
2024-02-15T16:11:36.891Z,19.10
2024-02-15T16:14:06.869Z,19.14
2024-02-15T16:16:33.720Z,19.09
2024-02-15T16:19:01.430Z,18.98
2024-02-15T16:21:28.305Z,19.01
2024-02-15T16:23:55.059Z,19.00
2024-02-15T16:26:22.802Z,19.23
2024-02-15T16:28:49.685Z,20.56
2024-02-15T16:31:16.529Z,20.01
2024-02-15T16:33:43.233Z,20.86
2024-02-15T16:36:10.022Z,20.56
2024-02-15T16:38:37.320Z,20.98
2024-02-15T16:41:04.683Z,20.89
2024-02-15T16:43:32.679Z,20.85
2024-02-15T16:48:26.774Z,20.51
2024-02-15T16:50:53.522Z,21.79
2024-02-15T16:53:20.438Z,20.58
2024-02-15T16:55:47.279Z,21.79
2024-02-15T16:58:14.042Z,21.24
2024-02-15T17:00:40.792Z,21.73
2024-02-15T17:03:07.725Z,21.60
2024-02-15T17:05:36.995Z,21.55
2024-02-15T17:08:07.768Z,21.84
2024-02-15T17:10:36.532Z,21.11
2024-02-15T17:13:03.578Z,22.26
2024-02-15T17:15:30.665Z,21.41
2024-02-15T17:17:58.040Z,22.35
2024-02-15T17:20:25.375Z,21.26
2024-02-15T17:22:53.654Z,22.15
2024-02-15T17:25:24.606Z,21.62
2024-02-15T17:27:53.535Z,22.01
2024-02-15T17:30:20.246Z,22.19
2024-02-15T17:32:47.080Z,21.71
2024-02-15T17:35:18.114Z,22.60
2024-02-15T17:37:45.057Z,21.32
2024-02-15T17:40:13.157Z,22.64
2024-02-15T17:42:41.413Z,21.43
2024-02-15T17:45:11.209Z,22.52
2024-02-15T17:47:40.546Z,22.01
2024-02-15T17:50:12.566Z,22.31
2024-02-15T17:52:39.818Z,22.23
2024-02-15T17:55:10.386Z,22.01
2024-02-15T17:57:38.487Z,22.53
2024-02-15T18:00:08.832Z,21.72
2024-02-15T18:02:36.404Z,22.79
2024-02-15T18:05:05.210Z,21.44
2024-02-15T18:07:33.386Z,22.71
2024-02-15T18:10:04.218Z,22.05
2024-02-15T18:12:31.231Z,22.63
2024-02-15T18:14:57.917Z,22.21
2024-02-15T18:17:24.686Z,22.25
2024-02-15T18:19:51.484Z,22.40
2024-02-15T18:22:18.794Z,21.70
2024-02-15T18:24:47.064Z,22.82
2024-02-15T18:27:20.330Z,21.84
2024-02-15T18:29:47.302Z,22.90
2024-02-15T18:32:15.313Z,22.04
2024-02-15T18:34:44.104Z,22.79
2024-02-15T18:37:11.590Z,21.64
2024-02-15T18:39:38.512Z,20.84
2024-02-15T18:42:08.197Z,20.62
2024-02-15T18:44:36.035Z,20.42
2024-02-15T18:47:02.749Z,20.25
2024-02-15T18:49:34.490Z,20.18
2024-02-15T18:52:03.659Z,20.10
2024-02-15T18:54:31.663Z,19.91
2024-02-15T18:56:58.719Z,20.00
2024-02-15T18:59:26.385Z,19.83
2024-02-15T19:01:53.283Z,19.76
2024-02-15T19:04:20.165Z,19.81
2024-02-15T19:06:47.172Z,19.64
2024-02-15T19:09:14.058Z,19.76
2024-02-15T19:11:41.484Z,19.71
2024-02-15T19:14:10.713Z,19.66
2024-02-15T19:16:38.734Z,19.61
2024-02-15T19:19:10.470Z,19.64
2024-02-15T19:21:39.420Z,19.44
2024-02-15T19:24:08.237Z,19.52
2024-02-15T19:26:37.124Z,19.51
2024-02-15T19:29:04.019Z,19.48
2024-02-15T19:31:30.665Z,19.47
2024-02-15T19:33:57.757Z,19.42
2024-02-15T19:36:26.176Z,19.34
2024-02-15T19:38:53.227Z,19.37
2024-02-15T19:41:19.953Z,19.27
2024-02-15T19:43:46.975Z,19.28
2024-02-15T19:46:13.813Z,19.30
2024-02-15T19:48:42.888Z,19.24
2024-02-15T19:51:09.883Z,19.32
2024-02-15T19:53:36.548Z,19.21
2024-02-15T19:56:04.381Z,19.20
2024-02-15T19:58:31.037Z,19.22
2024-02-15T20:00:57.735Z,19.16
2024-02-15T20:03:27.148Z,19.21
2024-02-15T20:05:55.952Z,19.27
2024-02-15T20:08:22.832Z,19.28
2024-02-15T20:10:49.949Z,19.19
2024-02-15T20:13:16.817Z,19.16
2024-02-15T20:15:44.355Z,19.11
2024-02-15T20:18:11.266Z,19.20
2024-02-15T20:20:38.107Z,19.15
2024-02-15T20:23:04.959Z,19.07
2024-02-15T20:25:31.667Z,19.04
2024-02-15T20:27:58.345Z,19.05
2024-02-15T20:30:25.069Z,19.02
2024-02-15T20:32:51.869Z,19.05
2024-02-15T20:35:19.085Z,19.05
2024-02-15T20:37:45.823Z,18.99
2024-02-15T20:40:12.896Z,19.05
2024-02-15T20:42:39.821Z,18.97
2024-02-15T20:45:06.897Z,18.98
2024-02-15T20:47:34.893Z,18.93
2024-02-15T20:50:02.086Z,19.05
2024-02-15T20:52:28.969Z,19.03
2024-02-15T20:54:55.727Z,19.11
2024-02-15T20:57:22.613Z,19.13
2024-02-15T20:59:49.484Z,19.10
2024-02-15T21:02:19.232Z,19.05
2024-02-15T21:04:45.964Z,19.14
2024-02-15T21:07:12.804Z,19.03
2024-02-15T21:09:39.702Z,19.06
2024-02-15T21:12:08.230Z,18.99
2024-02-15T21:14:35.098Z,19.06
2024-02-15T21:17:01.838Z,19.03
2024-02-15T21:19:28.888Z,19.49
2024-02-15T21:21:55.864Z,20.50
2024-02-15T21:24:23.082Z,19.92
2024-02-15T21:26:50.714Z,21.04
2024-02-15T21:29:17.526Z,20.33
2024-02-15T21:31:44.573Z,21.15
2024-02-15T21:34:11.416Z,20.72
2024-02-15T21:36:40.055Z,21.08
2024-02-15T21:39:06.921Z,21.22
2024-02-15T21:41:36.277Z,20.99
2024-02-15T21:44:03.364Z,21.69
2024-02-15T21:46:30.085Z,20.96
2024-02-15T21:48:56.911Z,21.93
2024-02-15T21:51:24.444Z,20.73
2024-02-15T21:53:51.344Z,21.87
2024-02-15T21:56:17.994Z,21.43
2024-02-15T21:58:44.672Z,21.68
2024-02-15T22:01:11.561Z,21.49
2024-02-15T22:03:38.383Z,21.30
2024-02-15T22:06:05.237Z,22.06
2024-02-15T22:08:32.149Z,21.24
2024-02-15T22:10:59.165Z,22.38
2024-02-15T22:13:25.820Z,21.48
2024-02-15T22:15:52.426Z,22.24
2024-02-15T22:18:19.312Z,21.73
2024-02-15T22:20:46.027Z,21.98
2024-02-15T22:23:12.685Z,21.83
2024-02-15T22:25:40.006Z,21.43
2024-02-15T22:28:07.396Z,22.52
2024-02-15T22:30:34.240Z,21.32
2024-02-15T22:33:01.145Z,22.57
2024-02-15T22:35:28.129Z,21.78
2024-02-15T22:37:55.549Z,22.48
2024-02-15T22:40:22.375Z,22.00
2024-02-15T22:42:49.038Z,22.20
2024-02-15T22:45:15.899Z,22.09
2024-02-15T22:47:44.927Z,21.65
2024-02-15T22:50:12.484Z,22.67
2024-02-15T22:52:40.570Z,21.67
2024-02-15T22:55:07.588Z,22.77
2024-02-15T22:57:34.276Z,21.93
2024-02-15T23:00:01.261Z,22.61
2024-02-15T23:02:27.994Z,22.20
2024-02-15T23:04:54.659Z,22.32
2024-02-15T23:07:24.416Z,22.44
2024-02-15T23:09:51.271Z,21.91
2024-02-15T23:12:18.041Z,22.77
2024-02-15T23:14:45.801Z,21.90
2024-02-15T23:17:12.567Z,22.86
2024-02-15T23:19:40.695Z,21.98
2024-02-15T23:22:10.233Z,22.71
2024-02-15T23:24:37.407Z,21.48
2024-02-15T23:27:04.393Z,20.79
2024-02-15T23:29:31.040Z,20.43
2024-02-15T23:31:58.556Z,20.46
2024-02-15T23:34:25.913Z,20.15
2024-02-15T23:37:11.218Z,19.85
2024-02-15T23:39:56.387Z,19.89
2024-02-15T23:42:23.240Z,19.67
2024-02-15T23:44:49.955Z,19.67
2024-02-15T23:47:16.778Z,19.70
2024-02-15T23:49:43.609Z,19.60
2024-02-15T23:52:10.438Z,19.70
2024-02-15T23:54:38.065Z,19.43
2024-02-15T23:57:06.590Z,19.66
2024-02-15T23:59:36.559Z,19.54
